sensor_id;sensor_type;location;lat;lon;timestamp;pressure;altitude;pressure_sealevel;temperature;humidity
27429;BME280;14881;48.092;11.574;2023-05-24T00:01:21;95587.66;;;12.99;100.00
27429;BME280;14881;48.092;11.574;2023-05-24T00:03:50;95587.19;;;12.97;100.00
27429;BME280;14881;48.092;11.574;2023-05-24T00:06:18;95574.44;;;12.93;100.00
27429;BME280;14881;48.092;11.574;2023-05-24T00:08:45;95580.09;;;12.96;100.00
27429;BME280;14881;48.092;11.574;2023-05-24T00:11:12;95577.97;;;12.93;100.00
27429;BME280;14881;48.092;11.574;2023-05-24T00:13:38;95568.19;;;12.92;100.00
27429;BME280;14881;48.092;11.574;2023-05-24T00:16:04;95575.44;;;12.83;100.00
27429;BME280;14881;48.092;11.574;2023-05-24T00:18:31;95572.81;;;12.78;100.00
27429;BME280;14881;48.092;11.574;2023-05-24T00:20:57;95560.09;;;12.73;100.00
27429;BME280;14881;48.092;11.574;2023-05-24T00:23:25;95566.66;;;12.72;100.00
27429;BME280;14881;48.092;11.574;2023-05-24T00:25:51;95566.44;;;12.69;100.00
27429;BME280;14881;48.092;11.574;2023-05-24T00:28:18;95567.03;;;12.66;100.00
27429;BME280;14881;48.092;11.574;2023-05-24T00:30:44;95563.00;;;12.63;100.00
27429;BME280;14881;48.092;11.574;2023-05-24T00:33:11;95559.47;;;12.63;100.00
27429;BME280;14881;48.092;11.574;2023-05-24T00:35:37;95568.75;;;12.62;100.00
27429;BME280;14881;48.092;11.574;2023-05-24T00:38:03;95562.91;;;12.68;100.00
27429;BME280;14881;48.092;11.574;2023-05-24T00:40:30;95560.97;;;12.69;100.00
27429;BME280;14881;48.092;11.574;2023-05-24T00:42:57;95563.72;;;12.69;100.00
27429;BME280;14881;48.092;11.574;2023-05-24T00:45:23;95564.00;;;12.67;100.00
27429;BME280;14881;48.092;11.574;2023-05-24T00:47:50;95555.94;;;12.62;100.00
27429;BME280;14881;48.092;11.574;2023-05-24T00:50:16;95551.19;;;12.68;100.00
27429;BME280;14881;48.092;11.574;2023-05-24T00:52:44;95557.56;;;12.63;100.00
27429;BME280;14881;48.092;11.574;2023-05-24T00:55:12;95556.94;;;12.66;100.00
27429;BME280;14881;48.092;11.574;2023-05-24T00:57:40;95558.56;;;12.67;100.00
27429;BME280;14881;48.092;11.574;2023-05-24T01:00:07;95562.38;;;12.66;100.00
27429;BME280;14881;48.092;11.574;2023-05-24T01:02:36;95562.50;;;12.75;100.00
27429;BME280;14881;48.092;11.574;2023-05-24T01:05:04;95561.78;;;12.69;100.00
27429;BME280;14881;48.092;11.574;2023-05-24T01:07:44;95552.59;;;12.65;100.00
27429;BME280;14881;48.092;11.574;2023-05-24T01:10:33;95559.06;;;12.69;100.00
27429;BME280;14881;48.092;11.574;2023-05-24T01:13:11;95552.00;;;12.68;100.00
27429;BME280;14881;48.092;11.574;2023-05-24T01:15:44;95550.38;;;12.67;100.00
27429;BME280;14881;48.092;11.574;2023-05-24T01:18:17;95548.66;;;12.71;100.00
27429;BME280;14881;48.092;11.574;2023-05-24T01:20:49;95544.41;;;12.65;100.00
27429;BME280;14881;48.092;11.574;2023-05-24T01:23:27;95543.59;;;12.65;100.00
27429;BME280;14881;48.092;11.574;2023-05-24T01:26:05;95546.03;;;12.66;100.00
27429;BME280;14881;48.092;11.574;2023-05-24T01:28:34;95547.06;;;12.70;100.00
27429;BME280;14881;48.092;11.574;2023-05-24T01:31:01;95545.44;;;12.69;100.00
27429;BME280;14881;48.092;11.574;2023-05-24T01:33:29;95546.75;;;12.72;100.00
27429;BME280;14881;48.092;11.574;2023-05-24T01:35:55;95546.97;;;12.75;100.00
27429;BME280;14881;48.092;11.574;2023-05-24T01:38:22;95546.06;;;12.80;100.00
27429;BME280;14881;48.092;11.574;2023-05-24T01:40:51;95546.16;;;12.75;100.00
27429;BME280;14881;48.092;11.574;2023-05-24T01:43:27;95543.81;;;12.68;100.00
27429;BME280;14881;48.092;11.574;2023-05-24T01:46:02;95553.41;;;12.66;100.00
27429;BME280;14881;48.092;11.574;2023-05-24T01:48:36;95551.69;;;12.70;100.00
27429;BME280;14881;48.092;11.574;2023-05-24T01:51:05;95555.44;;;12.74;100.00
27429;BME280;14881;48.092;11.574;2023-05-24T01:53:33;95559.06;;;12.69;100.00
27429;BME280;14881;48.092;11.574;2023-05-24T01:56:02;95550.59;;;12.71;100.00
27429;BME280;14881;48.092;11.574;2023-05-24T01:58:31;95548.16;;;12.69;100.00
27429;BME280;14881;48.092;11.574;2023-05-24T02:00:59;95559.78;;;12.75;100.00
27429;BME280;14881;48.092;11.574;2023-05-24T02:03:26;95551.81;;;12.78;100.00
27429;BME280;14881;48.092;11.574;2023-05-24T02:05:53;95550.59;;;12.84;100.00
27429;BME280;14881;48.092;11.574;2023-05-24T02:08:19;95539.69;;;12.84;100.00
27429;BME280;14881;48.092;11.574;2023-05-24T02:10:46;95545.56;;;12.78;100.00
27429;BME280;14881;48.092;11.574;2023-05-24T02:13:13;95538.88;;;12.70;100.00
27429;BME280;14881;48.092;11.574;2023-05-24T02:15:40;95542.63;;;12.74;100.00
27429;BME280;14881;48.092;11.574;2023-05-24T02:18:08;95539.69;;;12.71;100.00
27429;BME280;14881;48.092;11.574;2023-05-24T02:20:36;95544.63;;;12.69;100.00
27429;BME280;14881;48.092;11.574;2023-05-24T02:23:03;95547.16;;;12.65;100.00
27429;BME280;14881;48.092;11.574;2023-05-24T02:25:29;95545.03;;;12.62;100.00
27429;BME280;14881;48.092;11.574;2023-05-24T02:27:56;95546.44;;;12.60;100.00
27429;BME280;14881;48.092;11.574;2023-05-24T02:30:23;95543.72;;;12.60;100.00
27429;BME280;14881;48.092;11.574;2023-05-24T02:32:49;95539.69;;;12.57;100.00
27429;BME280;14881;48.092;11.574;2023-05-24T02:35:16;95548.44;;;12.54;100.00
27429;BME280;14881;48.092;11.574;2023-05-24T02:37:43;95543.81;;;12.54;100.00
27429;BME280;14881;48.092;11.574;2023-05-24T02:40:10;95551.25;;;12.49;100.00
27429;BME280;14881;48.092;11.574;2023-05-24T02:42:37;95548.53;;;12.49;100.00
27429;BME280;14881;48.092;11.574;2023-05-24T02:45:04;95559.72;;;12.47;100.00
27429;BME280;14881;48.092;11.574;2023-05-24T02:47:30;95548.53;;;12.49;100.00
27429;BME280;14881;48.092;11.574;2023-05-24T02:49:57;95546.31;;;12.51;100.00
27429;BME280;14881;48.092;11.574;2023-05-24T02:52:24;95540.19;;;12.45;100.00
27429;BME280;14881;48.092;11.574;2023-05-24T02:54:51;95541.78;;;12.46;100.00
27429;BME280;14881;48.092;11.574;2023-05-24T02:57:17;95536.75;;;12.53;100.00
27429;BME280;14881;48.092;11.574;2023-05-24T02:59:44;95533.69;;;12.41;100.00
27429;BME280;14881;48.092;11.574;2023-05-24T03:02:10;95534.41;;;12.47;100.00
27429;BME280;14881;48.092;11.574;2023-05-24T03:04:38;95540.84;;;12.37;100.00
27429;BME280;14881;48.092;11.574;2023-05-24T03:07:04;95537.63;;;12.35;100.00
27429;BME280;14881;48.092;11.574;2023-05-24T03:09:32;95536.59;;;12.31;100.00
27429;BME280;14881;48.092;11.574;2023-05-24T03:11:58;95537.91;;;12.34;100.00
27429;BME280;14881;48.092;11.574;2023-05-24T03:14:24;95539.53;;;12.35;100.00
27429;BME280;14881;48.092;11.574;2023-05-24T03:16:51;95532.38;;;12.39;100.00
27429;BME280;14881;48.092;11.574;2023-05-24T03:19:17;95541.66;;;12.38;100.00
27429;BME280;14881;48.092;11.574;2023-05-24T03:21:44;95533.78;;;12.36;100.00
27429;BME280;14881;48.092;11.574;2023-05-24T03:24:10;95541.16;;;12.36;100.00
27429;BME280;14881;48.092;11.574;2023-05-24T03:26:38;95536.22;;;12.38;100.00
27429;BME280;14881;48.092;11.574;2023-05-24T03:29:05;95536.22;;;12.38;100.00
27429;BME280;14881;48.092;11.574;2023-05-24T03:31:31;95536.00;;;12.34;100.00
27429;BME280;14881;48.092;11.574;2023-05-24T03:33:58;95534.16;;;12.30;100.00
27429;BME280;14881;48.092;11.574;2023-05-24T03:36:24;95542.25;;;12.35;100.00
27429;BME280;14881;48.092;11.574;2023-05-24T03:38:52;95545.88;;;12.30;100.00
27429;BME280;14881;48.092;11.574;2023-05-24T03:41:19;95551.94;;;12.27;100.00
27429;BME280;14881;48.092;11.574;2023-05-24T03:43:46;95547.59;;;12.26;100.00
27429;BME280;14881;48.092;11.574;2023-05-24T03:46:13;95551.72;;;12.24;100.00
27429;BME280;14881;48.092;11.574;2023-05-24T03:48:39;95553.63;;;12.23;100.00
27429;BME280;14881;48.092;11.574;2023-05-24T03:51:05;95550.03;;;12.28;100.00
27429;BME280;14881;48.092;11.574;2023-05-24T03:53:34;95564.53;;;12.23;100.00
27429;BME280;14881;48.092;11.574;2023-05-24T03:56:00;95556.75;;;12.16;100.00
27429;BME280;14881;48.092;11.574;2023-05-24T03:58:26;95565.19;;;12.15;100.00
27429;BME280;14881;48.092;11.574;2023-05-24T04:00:55;95562.78;;;12.13;100.00
27429;BME280;14881;48.092;11.574;2023-05-24T04:03:21;95561.16;;;12.12;100.00
27429;BME280;14881;48.092;11.574;2023-05-24T04:05:48;95562.78;;;12.13;100.00
27429;BME280;14881;48.092;11.574;2023-05-24T04:08:14;95561.88;;;12.18;100.00
27429;BME280;14881;48.092;11.574;2023-05-24T04:10:41;95569.47;;;12.21;100.00
27429;BME280;14881;48.092;11.574;2023-05-24T04:13:07;95563.94;;;12.26;100.00
27429;BME280;14881;48.092;11.574;2023-05-24T04:15:34;95568.00;;;12.29;100.00
27429;BME280;14881;48.092;11.574;2023-05-24T04:18:01;95562.72;;;12.32;100.00
27429;BME280;14881;48.092;11.574;2023-05-24T04:20:28;95557.13;;;12.42;100.00
27429;BME280;14881;48.092;11.574;2023-05-24T04:22:54;95558.81;;;12.38;100.00
27429;BME280;14881;48.092;11.574;2023-05-24T04:25:21;95556.59;;;12.40;100.00
27429;BME280;14881;48.092;11.574;2023-05-24T04:27:47;95564.06;;;12.48;100.00
27429;BME280;14881;48.092;11.574;2023-05-24T04:30:15;95562.28;;;12.58;100.00
27429;BME280;14881;48.092;11.574;2023-05-24T04:32:42;95570.47;;;12.58;100.00
27429;BME280;14881;48.092;11.574;2023-05-24T04:35:10;95564.13;;;12.62;100.00
27429;BME280;14881;48.092;11.574;2023-05-24T04:37:36;95562.38;;;12.66;100.00
27429;BME280;14881;48.092;11.574;2023-05-24T04:40:03;95559.06;;;12.69;100.00
27429;BME280;14881;48.092;11.574;2023-05-24T04:42:30;95561.88;;;12.64;100.00
27429;BME280;14881;48.092;11.574;2023-05-24T04:44:56;95570.16;;;12.59;100.00
27429;BME280;14881;48.092;11.574;2023-05-24T04:47:23;95564.59;;;12.64;100.00
27429;BME280;14881;48.092;11.574;2023-05-24T04:49:49;95563.41;;;12.70;100.00
27429;BME280;14881;48.092;11.574;2023-05-24T04:52:17;95561.63;;;12.79;100.00
27429;BME280;14881;48.092;11.574;2023-05-24T04:54:43;95562.44;;;12.80;100.00
27429;BME280;14881;48.092;11.574;2023-05-24T04:57:10;95560.59;;;12.75;100.00
27429;BME280;14881;48.092;11.574;2023-05-24T04:59:36;95564.03;;;12.81;100.00
27429;BME280;14881;48.092;11.574;2023-05-24T05:02:03;95560.81;;;12.79;100.00
27429;BME280;14881;48.092;11.574;2023-05-24T05:04:30;95569.16;;;12.82;100.00
27429;BME280;14881;48.092;11.574;2023-05-24T05:06:56;95570.91;;;12.78;100.00
27429;BME280;14881;48.092;11.574;2023-05-24T05:09:23;95576.66;;;12.63;100.00
27429;BME280;14881;48.092;11.574;2023-05-24T05:11:50;95578.72;;;12.52;100.00
27429;BME280;14881;48.092;11.574;2023-05-24T05:14:16;95577.59;;;12.40;100.00
27429;BME280;14881;48.092;11.574;2023-05-24T05:16:42;95581.41;;;12.25;100.00
27429;BME280;14881;48.092;11.574;2023-05-24T05:19:10;95578.66;;;12.25;100.00
27429;BME280;14881;48.092;11.574;2023-05-24T05:21:38;95574.72;;;12.31;100.00
27429;BME280;14881;48.092;11.574;2023-05-24T05:24:04;95577.28;;;12.28;100.00
27429;BME280;14881;48.092;11.574;2023-05-24T05:26:31;95576.56;;;12.36;100.00
27429;BME280;14881;48.092;11.574;2023-05-24T05:28:58;95572.16;;;12.53;100.00
27429;BME280;14881;48.092;11.574;2023-05-24T05:31:24;95571.06;;;12.68;100.00
27429;BME280;14881;48.092;11.574;2023-05-24T05:33:51;95573.72;;;12.87;100.00
27429;BME280;14881;48.092;11.574;2023-05-24T05:36:18;95569.88;;;13.02;100.00
27429;BME280;14881;48.092;11.574;2023-05-24T05:38:44;95570.59;;;13.07;100.00
27429;BME280;14881;48.092;11.574;2023-05-24T05:41:11;95562.03;;;13.28;100.00
27429;BME280;14881;48.092;11.574;2023-05-24T05:43:38;95558.88;;;13.48;100.00
27429;BME280;14881;48.092;11.574;2023-05-24T05:46:04;95554.41;;;13.52;100.00
27429;BME280;14881;48.092;11.574;2023-05-24T05:48:31;95547.47;;;13.68;100.00
27429;BME280;14881;48.092;11.574;2023-05-24T05:50:58;95551.00;;;13.82;100.00
27429;BME280;14881;48.092;11.574;2023-05-24T05:53:24;95547.25;;;13.78;100.00
27429;BME280;14881;48.092;11.574;2023-05-24T05:55:50;95552.16;;;13.90;100.00
27429;BME280;14881;48.092;11.574;2023-05-24T05:58:17;95546.19;;;13.88;100.00
27429;BME280;14881;48.092;11.574;2023-05-24T06:00:44;95542.25;;;13.94;100.00
27429;BME280;14881;48.092;11.574;2023-05-24T06:03:10;95537.28;;;13.96;100.00
27429;BME280;14881;48.092;11.574;2023-05-24T06:05:37;95536.09;;;13.88;100.00
27429;BME280;14881;48.092;11.574;2023-05-24T06:08:03;95546.69;;;13.68;100.00
27429;BME280;14881;48.092;11.574;2023-05-24T06:10:30;95551.50;;;13.71;100.00
27429;BME280;14881;48.092;11.574;2023-05-24T06:12:56;95549.03;;;13.61;100.00
27429;BME280;14881;48.092;11.574;2023-05-24T06:15:22;95553.75;;;13.69;100.00
27429;BME280;14881;48.092;11.574;2023-05-24T06:17:49;95544.84;;;13.77;100.00
27429;BME280;14881;48.092;11.574;2023-05-24T06:20:17;95550.44;;;13.94;100.00
27429;BME280;14881;48.092;11.574;2023-05-24T06:22:44;95542.19;;;14.08;100.00
27429;BME280;14881;48.092;11.574;2023-05-24T06:25:11;95545.22;;;14.06;100.00
27429;BME280;14881;48.092;11.574;2023-05-24T06:27:40;95543.88;;;14.17;100.00
27429;BME280;14881;48.092;11.574;2023-05-24T06:30:07;95537.19;;;14.32;100.00
27429;BME280;14881;48.092;11.574;2023-05-24T06:32:34;95551.44;;;14.43;100.00
27429;BME280;14881;48.092;11.574;2023-05-24T06:35:02;95534.56;;;14.72;100.00
27429;BME280;14881;48.092;11.574;2023-05-24T06:37:28;95538.53;;;14.66;100.00
27429;BME280;14881;48.092;11.574;2023-05-24T06:39:58;95542.09;;;14.66;100.00
27429;BME280;14881;48.092;11.574;2023-05-24T06:42:25;95535.81;;;14.66;100.00
27429;BME280;14881;48.092;11.574;2023-05-24T06:44:51;95539.13;;;14.93;100.00
27429;BME280;14881;48.092;11.574;2023-05-24T06:47:18;95541.75;;;14.98;100.00
27429;BME280;14881;48.092;11.574;2023-05-24T06:49:44;95535.97;;;15.09;100.00
27429;BME280;14881;48.092;11.574;2023-05-24T06:52:13;95546.00;;;15.22;100.00
27429;BME280;14881;48.092;11.574;2023-05-24T06:54:39;95550.06;;;15.33;100.00
27429;BME280;14881;48.092;11.574;2023-05-24T06:57:06;95545.31;;;15.56;100.00
27429;BME280;14881;48.092;11.574;2023-05-24T06:59:33;95545.31;;;15.56;100.00
27429;BME280;14881;48.092;11.574;2023-05-24T07:01:59;95544.34;;;15.78;100.00
27429;BME280;14881;48.092;11.574;2023-05-24T07:04:29;95551.28;;;16.01;100.00
27429;BME280;14881;48.092;11.574;2023-05-24T07:06:55;95552.41;;;16.26;100.00
27429;BME280;14881;48.092;11.574;2023-05-24T07:09:23;95547.09;;;16.21;100.00
27429;BME280;14881;48.092;11.574;2023-05-24T07:11:49;95548.66;;;16.56;100.00
27429;BME280;14881;48.092;11.574;2023-05-24T07:14:16;95553.97;;;16.70;100.00
27429;BME280;14881;48.092;11.574;2023-05-24T07:16:42;95553.69;;;16.37;100.00
27429;BME280;14881;48.092;11.574;2023-05-24T07:19:08;95544.13;;;16.52;100.00
27429;BME280;14881;48.092;11.574;2023-05-24T07:21:35;95542.53;;;16.33;100.00
27429;BME280;14881;48.092;11.574;2023-05-24T07:24:02;95543.19;;;16.39;100.00
27429;BME280;14881;48.092;11.574;2023-05-24T07:26:30;95550.75;;;16.59;100.00
27429;BME280;14881;48.092;11.574;2023-05-24T07:28:56;95544.78;;;16.57;100.00
27429;BME280;14881;48.092;11.574;2023-05-24T07:31:22;95539.66;;;16.21;100.00
27429;BME280;14881;48.092;11.574;2023-05-24T07:33:49;95545.81;;;16.10;100.00
27429;BME280;14881;48.092;11.574;2023-05-24T07:36:15;95548.88;;;15.74;100.00
27429;BME280;14881;48.092;11.574;2023-05-24T07:38:42;95546.47;;;15.89;100.00
27429;BME280;14881;48.092;11.574;2023-05-24T07:41:08;95540.81;;;16.03;100.00
27429;BME280;14881;48.092;11.574;2023-05-24T07:43:35;95546.28;;;16.12;100.00
27429;BME280;14881;48.092;11.574;2023-05-24T07:46:02;95554.81;;;16.36;100.00
27429;BME280;14881;48.092;11.574;2023-05-24T07:48:28;95554.97;;;16.31;100.00
27429;BME280;14881;48.092;11.574;2023-05-24T07:50:55;95549.50;;;16.22;100.00
27429;BME280;14881;48.092;11.574;2023-05-24T07:53:21;95540.47;;;16.13;100.00
27429;BME280;14881;48.092;11.574;2023-05-24T07:55:48;95550.63;;;16.21;100.00
27429;BME280;14881;48.092;11.574;2023-05-24T07:58:15;95544.63;;;16.45;100.00
27429;BME280;14881;48.092;11.574;2023-05-24T08:00:42;95551.25;;;16.35;100.00
27429;BME280;14881;48.092;11.574;2023-05-24T08:03:09;95552.38;;;16.34;100.00
27429;BME280;14881;48.092;11.574;2023-05-24T08:05:38;95548.84;;;16.43;100.00
27429;BME280;14881;48.092;11.574;2023-05-24T08:08:04;95552.88;;;16.36;100.00
27429;BME280;14881;48.092;11.574;2023-05-24T08:10:31;95554.47;;;16.46;100.00
27429;BME280;14881;48.092;11.574;2023-05-24T08:12:57;95548.53;;;16.27;100.00
27429;BME280;14881;48.092;11.574;2023-05-24T08:15:24;95548.78;;;16.68;100.00
27429;BME280;14881;48.092;11.574;2023-05-24T08:17:51;95551.00;;;16.84;100.00
27429;BME280;14881;48.092;11.574;2023-05-24T08:20:17;95553.03;;;17.33;100.00
27429;BME280;14881;48.092;11.574;2023-05-24T08:22:44;95555.34;;;17.61;100.00
27429;BME280;14881;48.092;11.574;2023-05-24T08:25:10;95559.72;;;17.24;100.00
27429;BME280;14881;48.092;11.574;2023-05-24T08:27:36;95562.78;;;16.84;100.00
27429;BME280;14881;48.092;11.574;2023-05-24T08:30:04;95560.19;;;16.88;100.00
27429;BME280;14881;48.092;11.574;2023-05-24T08:32:30;95559.88;;;16.89;100.00
27429;BME280;14881;48.092;11.574;2023-05-24T08:34:58;95559.19;;;17.01;100.00
27429;BME280;14881;48.092;11.574;2023-05-24T08:37:44;95556.97;;;16.94;100.00
27429;BME280;14881;48.092;11.574;2023-05-24T08:40:11;95558.97;;;16.51;100.00
27429;BME280;14881;48.092;11.574;2023-05-24T08:42:38;95563.00;;;16.53;100.00
27429;BME280;14881;48.092;11.574;2023-05-24T08:45:08;95562.19;;;16.79;100.00
27429;BME280;14881;48.092;11.574;2023-05-24T08:47:36;95564.50;;;16.33;100.00
27429;BME280;14881;48.092;11.574;2023-05-24T08:50:05;95562.03;;;16.58;100.00
27429;BME280;14881;48.092;11.574;2023-05-24T08:52:33;95570.81;;;16.25;100.00
27429;BME280;14881;48.092;11.574;2023-05-24T08:55:00;95575.47;;;15.99;100.00
27429;BME280;14881;48.092;11.574;2023-05-24T08:57:27;95581.41;;;15.58;100.00
27429;BME280;14881;48.092;11.574;2023-05-24T08:59:55;95576.59;;;15.24;100.00
27429;BME280;14881;48.092;11.574;2023-05-24T09:02:22;95580.00;;;15.29;100.00
27429;BME280;14881;48.092;11.574;2023-05-24T09:04:51;95573.50;;;15.65;100.00
27429;BME280;14881;48.092;11.574;2023-05-24T09:07:21;95576.75;;;15.84;100.00
27429;BME280;14881;48.092;11.574;2023-05-24T09:09:54;95573.03;;;15.80;100.00
27429;BME280;14881;48.092;11.574;2023-05-24T09:12:23;95567.53;;;15.63;100.00
27429;BME280;14881;48.092;11.574;2023-05-24T09:15:04;95571.91;;;15.81;100.00
27429;BME280;14881;48.092;11.574;2023-05-24T09:17:31;95584.94;;;15.67;100.00
27429;BME280;14881;48.092;11.574;2023-05-24T09:19:59;95582.22;;;15.58;100.00
27429;BME280;14881;48.092;11.574;2023-05-24T09:22:27;95589.63;;;15.18;100.00
27429;BME280;14881;48.092;11.574;2023-05-24T09:24:57;95583.53;;;15.21;100.00
27429;BME280;14881;48.092;11.574;2023-05-24T09:27:24;95593.84;;;14.93;100.00
27429;BME280;14881;48.092;11.574;2023-05-24T09:29:51;95592.88;;;14.89;100.00
27429;BME280;14881;48.092;11.574;2023-05-24T09:32:19;95584.25;;;15.05;100.00
27429;BME280;14881;48.092;11.574;2023-05-24T09:34:51;95586.44;;;15.33;100.00
27429;BME280;14881;48.092;11.574;2023-05-24T09:37:19;95591.06;;;15.55;100.00
27429;BME280;14881;48.092;11.574;2023-05-24T09:39:52;95583.50;;;15.70;100.00
27429;BME280;14881;48.092;11.574;2023-05-24T09:42:21;95596.41;;;15.69;100.00
27429;BME280;14881;48.092;11.574;2023-05-24T09:44:58;95602.69;;;15.70;100.00
27429;BME280;14881;48.092;11.574;2023-05-24T09:47:27;95592.06;;;15.85;100.00
27429;BME280;14881;48.092;11.574;2023-05-24T09:49:54;95593.19;;;15.76;100.00
27429;BME280;14881;48.092;11.574;2023-05-24T09:52:20;95597.97;;;15.61;100.00
27429;BME280;14881;48.092;11.574;2023-05-24T09:54:47;95589.78;;;15.79;100.00
27429;BME280;14881;48.092;11.574;2023-05-24T09:57:15;95594.66;;;16.08;100.00
27429;BME280;14881;48.092;11.574;2023-05-24T09:59:42;95595.13;;;16.01;100.00
27429;BME280;14881;48.092;11.574;2023-05-24T10:02:09;95594.63;;;15.82;100.00
27429;BME280;14881;48.092;11.574;2023-05-24T10:04:37;95610.72;;;15.66;100.00
27429;BME280;14881;48.092;11.574;2023-05-24T10:07:04;95599.78;;;15.57;100.00
27429;BME280;14881;48.092;11.574;2023-05-24T10:09:31;95600.66;;;15.44;100.00
27429;BME280;14881;48.092;11.574;2023-05-24T10:12:01;95605.94;;;15.32;100.00
27429;BME280;14881;48.092;11.574;2023-05-24T10:14:31;95609.47;;;15.32;100.00
27429;BME280;14881;48.092;11.574;2023-05-24T10:16:58;95603.72;;;15.03;100.00
27429;BME280;14881;48.092;11.574;2023-05-24T10:19:25;95613.88;;;14.72;100.00
27429;BME280;14881;48.092;11.574;2023-05-24T10:21:52;95618.78;;;14.61;100.00
27429;BME280;14881;48.092;11.574;2023-05-24T10:24:23;95616.53;;;14.41;100.00
27429;BME280;14881;48.092;11.574;2023-05-24T10:26:51;95618.00;;;14.02;100.00
27429;BME280;14881;48.092;11.574;2023-05-24T10:29:28;95621.84;;;14.01;100.00
27429;BME280;14881;48.092;11.574;2023-05-24T10:31:59;95619.28;;;13.82;100.00
27429;BME280;14881;48.092;11.574;2023-05-24T10:34:26;95629.31;;;13.59;100.00
27429;BME280;14881;48.092;11.574;2023-05-24T10:36:56;95625.50;;;13.33;100.00
27429;BME280;14881;48.092;11.574;2023-05-24T10:39:24;95634.38;;;13.25;100.00
27429;BME280;14881;48.092;11.574;2023-05-24T10:41:54;95630.75;;;13.30;100.00
27429;BME280;14881;48.092;11.574;2023-05-24T10:44:27;95630.84;;;13.24;100.00
27429;BME280;14881;48.092;11.574;2023-05-24T10:47:05;95628.25;;;13.33;100.00
27429;BME280;14881;48.092;11.574;2023-05-24T10:49:32;95635.59;;;13.46;100.00
27429;BME280;14881;48.092;11.574;2023-05-24T10:52:06;95641.28;;;13.50;100.00
27429;BME280;14881;48.092;11.574;2023-05-24T10:54:33;95628.72;;;13.49;100.00
27429;BME280;14881;48.092;11.574;2023-05-24T10:57:01;95636.69;;;13.59;100.00
27429;BME280;14881;48.092;11.574;2023-05-24T10:59:43;95627.09;;;13.62;100.00
27429;BME280;14881;48.092;11.574;2023-05-24T11:02:10;95631.00;;;13.69;100.00
27429;BME280;14881;48.092;11.574;2023-05-24T11:04:41;95627.22;;;13.92;100.00
27429;BME280;14881;48.092;11.574;2023-05-24T11:07:09;95617.06;;;14.07;100.00
27429;BME280;14881;48.092;11.574;2023-05-24T11:09:37;95618.25;;;14.14;100.00
27429;BME280;14881;48.092;11.574;2023-05-24T11:12:13;95614.78;;;14.22;100.00
27429;BME280;14881;48.092;11.574;2023-05-24T11:14:46;95614.41;;;14.15;100.00
27429;BME280;14881;48.092;11.574;2023-05-24T11:17:14;95614.94;;;14.04;100.00
27429;BME280;14881;48.092;11.574;2023-05-24T11:19:45;95619.28;;;13.82;100.00
27429;BME280;14881;48.092;11.574;2023-05-24T11:22:13;95618.47;;;13.82;100.00
27429;BME280;14881;48.092;11.574;2023-05-24T11:24:40;95624.22;;;13.80;100.00
27429;BME280;14881;48.092;11.574;2023-05-24T11:27:07;95623.41;;;13.80;100.00
27429;BME280;14881;48.092;11.574;2023-05-24T11:29:39;95615.84;;;13.77;100.00
27429;BME280;14881;48.092;11.574;2023-05-24T11:32:06;95616.09;;;13.89;100.00
27429;BME280;14881;48.092;11.574;2023-05-24T11:34:33;95609.06;;;14.10;100.00
27429;BME280;14881;48.092;11.574;2023-05-24T11:37:01;95617.66;;;14.17;100.00
27429;BME280;14881;48.092;11.574;2023-05-24T11:39:30;95608.66;;;14.03;100.00
27429;BME280;14881;48.092;11.574;2023-05-24T11:41:57;95600.38;;;14.31;100.00
27429;BME280;14881;48.092;11.574;2023-05-24T11:44:23;95616.50;;;14.54;100.00
27429;BME280;14881;48.092;11.574;2023-05-24T11:46:56;95609.53;;;14.71;100.00
27429;BME280;14881;48.092;11.574;2023-05-24T11:49:22;95608.63;;;14.84;100.00
27429;BME280;14881;48.092;11.574;2023-05-24T11:51:49;95614.75;;;14.89;100.00
27429;BME280;14881;48.092;11.574;2023-05-24T11:54:18;95614.38;;;15.05;100.00
27429;BME280;14881;48.092;11.574;2023-05-24T11:56:46;95598.91;;;15.48;100.00
27429;BME280;14881;48.092;11.574;2023-05-24T11:59:14;95599.03;;;15.91;100.00
27429;BME280;14881;48.092;11.574;2023-05-24T12:01:41;95602.06;;;15.90;100.00
27429;BME280;14881;48.092;11.574;2023-05-24T12:04:08;95597.19;;;15.78;100.00
27429;BME280;14881;48.092;11.574;2023-05-24T12:06:36;95609.50;;;15.89;100.00
27429;BME280;14881;48.092;11.574;2023-05-24T12:09:04;95609.16;;;15.74;100.00
27429;BME280;14881;48.092;11.574;2023-05-24T12:11:34;95607.06;;;15.88;100.00
27429;BME280;14881;48.092;11.574;2023-05-24T12:14:03;95613.34;;;15.97;100.00
27429;BME280;14881;48.092;11.574;2023-05-24T12:16:30;95608.63;;;15.63;100.00
27429;BME280;14881;48.092;11.574;2023-05-24T12:18:58;95609.91;;;15.57;100.00
27429;BME280;14881;48.092;11.574;2023-05-24T12:21:32;95617.69;;;15.41;100.00
27429;BME280;14881;48.092;11.574;2023-05-24T12:24:09;95621.97;;;15.16;100.00
27429;BME280;14881;48.092;11.574;2023-05-24T12:26:36;95617.84;;;14.96;100.00
27429;BME280;14881;48.092;11.574;2023-05-24T12:29:02;95617.97;;;14.91;100.00
27429;BME280;14881;48.092;11.574;2023-05-24T12:31:29;95606.50;;;14.81;100.00
27429;BME280;14881;48.092;11.574;2023-05-24T12:33:56;95617.63;;;14.84;100.00
27429;BME280;14881;48.092;11.574;2023-05-24T12:36:22;95614.75;;;14.89;100.00
27429;BME280;14881;48.092;11.574;2023-05-24T12:38:49;95612.69;;;14.95;100.00
27429;BME280;14881;48.092;11.574;2023-05-24T12:41:17;95619.38;;;14.80;100.00
27429;BME280;14881;48.092;11.574;2023-05-24T12:43:44;95618.56;;;14.49;100.00